createdAt,value
2018-11-06T00:01:58.853Z,20.27
2018-11-06T00:05:08.609Z,19.50
2018-11-06T00:08:13.299Z,17.37
2018-11-06T00:11:17.863Z,20.30
2018-11-06T00:14:22.393Z,17.60
2018-11-06T00:17:26.945Z,16.63
2018-11-06T00:20:31.453Z,14.93
2018-11-06T00:23:36.032Z,17.53
2018-11-06T00:26:40.615Z,18.47
2018-11-06T00:29:45.090Z,17.40
2018-11-06T00:32:50.319Z,17.43
2018-11-06T00:35:54.873Z,16.40
2018-11-06T00:38:59.372Z,15.50
2018-11-06T00:42:04.067Z,14.30
2018-11-06T00:45:16.264Z,15.27
2018-11-06T00:48:20.947Z,14.50
2018-11-06T00:51:26.483Z,14.20
2018-11-06T00:54:31.201Z,13.73
2018-11-06T00:57:36.256Z,13.60
2018-11-06T01:00:40.835Z,15.03
2018-11-06T01:03:54.346Z,15.00
2018-11-06T01:06:58.884Z,16.87
2018-11-06T01:10:03.417Z,17.10
2018-11-06T01:13:08.029Z,13.70
2018-11-06T01:16:12.737Z,14.77
2018-11-06T01:19:17.271Z,15.13
2018-11-06T01:22:21.989Z,15.07
2018-11-06T01:25:26.859Z,17.37
2018-11-06T01:28:31.604Z,15.93
2018-11-06T01:31:36.324Z,15.13
2018-11-06T01:34:40.812Z,13.80
2018-11-06T01:37:46.311Z,17.83
2018-11-06T01:40:51.055Z,18.47
2018-11-06T01:43:55.851Z,18.47
2018-11-06T01:47:00.304Z,15.93
2018-11-06T01:50:05.124Z,13.60
2018-11-06T01:53:09.619Z,12.80
2018-11-06T01:56:14.207Z,18.03
2018-11-06T01:59:18.869Z,14.93
2018-11-06T02:02:23.413Z,15.83
2018-11-06T02:05:27.999Z,18.03
2018-11-06T02:08:32.614Z,14.13
2018-11-06T02:11:37.167Z,12.70
2018-11-06T02:14:41.892Z,12.03
2018-11-06T02:17:46.790Z,14.10
2018-11-06T02:20:51.349Z,12.23
2018-11-06T02:23:56.002Z,12.40
2018-11-06T02:27:00.563Z,14.70
2018-11-06T02:30:05.988Z,13.07
2018-11-06T02:33:10.742Z,13.03
2018-11-06T02:36:15.347Z,13.93
2018-11-06T02:39:19.930Z,12.23
2018-11-06T02:42:24.507Z,12.87
2018-11-06T02:45:29.092Z,15.23
2018-11-06T02:48:33.680Z,14.90
2018-11-06T02:51:38.188Z,13.40
2018-11-06T02:54:42.836Z,16.33
2018-11-06T02:57:47.530Z,15.30
2018-11-06T03:00:52.854Z,15.67
2018-11-06T03:03:57.472Z,16.20
2018-11-06T03:07:02.164Z,14.53
2018-11-06T03:10:08.022Z,14.33
2018-11-06T03:13:13.703Z,13.33
2018-11-06T03:16:18.201Z,17.27
2018-11-06T03:19:22.828Z,16.43
2018-11-06T03:22:27.430Z,16.80
2018-11-06T03:25:31.975Z,15.67
2018-11-06T03:28:36.590Z,13.73
2018-11-06T03:31:41.094Z,15.07
2018-11-06T03:34:45.756Z,14.23
2018-11-06T03:37:50.313Z,14.57
2018-11-06T03:40:54.812Z,15.10
2018-11-06T03:43:59.586Z,14.77
2018-11-06T03:47:04.180Z,15.87
2018-11-06T03:50:11.018Z,13.00
2018-11-06T03:53:15.566Z,14.70
2018-11-06T03:56:20.156Z,13.73
2018-11-06T03:59:25.230Z,11.63
2018-11-06T04:02:29.909Z,12.27
2018-11-06T04:05:34.626Z,13.10
2018-11-06T04:08:39.167Z,16.57
2018-11-06T04:11:45.276Z,16.10
2018-11-06T04:14:50.056Z,15.27
2018-11-06T04:17:54.656Z,14.73
2018-11-06T04:20:59.179Z,17.67
2018-11-06T04:24:04.225Z,16.73
2018-11-06T04:27:08.704Z,16.50
2018-11-06T04:30:14.681Z,15.07
2018-11-06T04:33:19.267Z,16.20
2018-11-06T04:36:23.791Z,18.93
2018-11-06T04:39:28.421Z,18.70
2018-11-06T04:42:33.013Z,16.40
2018-11-06T04:45:37.645Z,17.23
2018-11-06T04:48:42.719Z,16.40
2018-11-06T04:51:47.262Z,15.23
2018-11-06T04:54:51.775Z,13.67
2018-11-06T04:57:56.403Z,16.20
2018-11-06T05:01:01.098Z,18.73
2018-11-06T05:04:05.900Z,17.27
2018-11-06T05:07:10.413Z,16.23
2018-11-06T05:10:15.615Z,15.27
2018-11-06T05:13:20.338Z,14.77
2018-11-06T05:16:24.894Z,16.17
2018-11-06T05:19:29.503Z,17.57
2018-11-06T05:22:34.050Z,19.50
2018-11-06T05:25:38.638Z,17.93
2018-11-06T05:28:43.803Z,15.57
2018-11-06T05:31:48.335Z,16.83
2018-11-06T05:34:53.012Z,17.17
2018-11-06T05:37:57.382Z,21.10
2018-11-06T05:41:05.061Z,16.13
2018-11-06T05:44:09.619Z,18.23
2018-11-06T05:47:14.168Z,17.20
2018-11-06T05:50:18.735Z,18.30
2018-11-06T05:53:23.478Z,16.07
2018-11-06T05:56:28.142Z,12.97
2018-11-06T05:59:32.740Z,18.57
2018-11-06T06:02:37.307Z,14.33
2018-11-06T06:05:42.176Z,16.47
2018-11-06T06:08:46.720Z,16.53
2018-11-06T06:11:51.249Z,14.93
2018-11-06T06:14:55.745Z,14.20
2018-11-06T06:18:00.403Z,19.90
2018-11-06T06:21:05.063Z,16.93
2018-11-06T06:24:09.600Z,16.60
2018-11-06T06:27:15.147Z,15.80
2018-11-06T06:30:19.760Z,19.27
2018-11-06T06:33:24.234Z,17.27
2018-11-06T06:36:28.778Z,21.40
2018-11-06T06:39:33.291Z,18.53
2018-11-06T06:42:37.828Z,17.43
2018-11-06T06:45:42.514Z,16.37
2018-11-06T06:48:47.084Z,18.87
2018-11-06T06:51:51.681Z,15.53
2018-11-06T06:54:56.145Z,16.87
2018-11-06T06:58:00.693Z,15.93
2018-11-06T07:01:05.565Z,14.77
2018-11-06T07:04:10.166Z,14.47
2018-11-06T07:07:14.664Z,11.80
2018-11-06T07:10:21.710Z,13.93
2018-11-06T07:13:26.215Z,11.70
2018-11-06T07:16:30.868Z,13.20
2018-11-06T07:19:35.467Z,14.33
2018-11-06T07:22:40.150Z,15.90
2018-11-06T07:25:44.773Z,12.27
2018-11-06T07:28:49.382Z,13.90
2018-11-06T07:31:54.001Z,13.23
2018-11-06T07:34:58.728Z,17.63
2018-11-06T07:38:03.184Z,12.50
2018-11-06T07:41:07.914Z,12.37
2018-11-06T07:44:12.598Z,13.97
2018-11-06T07:47:17.175Z,15.67
2018-11-06T07:50:21.817Z,14.63
2018-11-06T07:53:26.462Z,12.43
2018-11-06T07:56:30.978Z,15.03
2018-11-06T07:59:35.521Z,14.70
2018-11-06T08:02:40.044Z,14.60
2018-11-06T08:05:44.634Z,15.67
2018-11-06T08:08:49.200Z,15.97
2018-11-06T08:11:53.923Z,14.30
2018-11-06T08:14:58.548Z,16.93
2018-11-06T08:18:03.037Z,16.00
2018-11-06T08:21:07.627Z,16.07
2018-11-06T08:24:12.265Z,15.97
2018-11-06T08:27:16.775Z,16.87
2018-11-06T08:30:21.427Z,19.20
2018-11-06T08:33:25.862Z,19.40
2018-11-06T08:36:30.466Z,19.70
2018-11-06T08:39:35.058Z,17.83
2018-11-06T08:42:39.651Z,17.43
2018-11-06T08:45:44.211Z,17.40
2018-11-06T08:48:48.835Z,17.33
2018-11-06T08:51:53.407Z,18.53
2018-11-06T08:54:57.972Z,18.63
2018-11-06T08:58:02.476Z,18.73
2018-11-06T09:01:07.160Z,17.53
2018-11-06T09:04:11.745Z,17.73
2018-11-06T09:07:16.291Z,17.80
2018-11-06T09:10:20.903Z,18.90
2018-11-06T09:13:25.549Z,17.07
2018-11-06T09:16:30.151Z,17.33
2018-11-06T09:19:35.004Z,17.67
2018-11-06T09:22:39.523Z,16.87
2018-11-06T09:25:44.094Z,17.77
2018-11-06T09:28:48.738Z,20.13
2018-11-06T09:31:53.220Z,22.37
2018-11-06T09:34:57.731Z,18.10
2018-11-06T09:38:02.322Z,19.27
2018-11-06T09:41:07.088Z,19.30
2018-11-06T09:44:11.688Z,20.67
2018-11-06T09:47:16.305Z,19.77
2018-11-06T09:50:20.916Z,19.63
2018-11-06T09:53:25.505Z,20.17
2018-11-06T09:56:30.167Z,35.43
2018-11-06T09:59:34.738Z,21.10
2018-11-06T10:02:39.281Z,17.87
2018-11-06T10:05:43.835Z,19.17
2018-11-06T10:08:48.462Z,19.27
2018-11-06T10:11:53.044Z,18.73
2018-11-06T10:14:57.877Z,17.90
2018-11-06T10:18:02.464Z,17.43
2018-11-06T10:21:07.687Z,19.37
2018-11-06T10:24:12.426Z,19.63
2018-11-06T10:27:16.952Z,19.37
2018-11-06T10:30:21.530Z,17.63
2018-11-06T10:33:26.152Z,18.93
2018-11-06T10:36:30.712Z,18.37
2018-11-06T10:39:35.270Z,18.53
2018-11-06T10:42:39.871Z,20.03
2018-11-06T10:45:44.440Z,19.93
2018-11-06T10:48:49.205Z,19.63
2018-11-06T10:51:54.183Z,18.77
2018-11-06T10:54:58.676Z,18.40
2018-11-06T10:58:03.444Z,15.00
2018-11-06T11:01:13.085Z,14.27
2018-11-06T11:04:20.382Z,14.07
2018-11-06T11:07:24.879Z,14.13
2018-11-06T11:10:29.395Z,14.63
2018-11-06T11:13:33.914Z,14.67
2018-11-06T11:16:38.464Z,13.47
2018-11-06T11:19:42.983Z,12.90
2018-11-06T11:22:47.478Z,13.50
2018-11-06T11:25:52.027Z,12.73
2018-11-06T11:28:56.558Z,12.93
2018-11-06T11:32:01.152Z,12.20
2018-11-06T11:35:06.186Z,14.00
2018-11-06T11:38:10.803Z,13.27
2018-11-06T11:41:15.374Z,12.07
2018-11-06T11:44:20.009Z,12.70
2018-11-06T11:47:24.640Z,12.13
2018-11-06T11:50:29.191Z,12.70
2018-11-06T11:53:33.742Z,12.47
2018-11-06T11:56:38.328Z,12.40
2018-11-06T11:59:42.884Z,12.20
2018-11-06T12:02:47.580Z,13.73
2018-11-06T12:05:52.147Z,12.13
2018-11-06T12:08:56.672Z,10.73
2018-11-06T12:12:01.179Z,10.77
2018-11-06T12:15:08.205Z,10.80
2018-11-06T12:18:14.601Z,10.70
2018-11-06T12:21:19.218Z,10.37
2018-11-06T12:24:23.870Z,10.90
2018-11-06T12:27:28.381Z,10.90
2018-11-06T12:30:32.914Z,11.23
2018-11-06T12:33:37.474Z,9.90
2018-11-06T12:36:42.238Z,10.10
2018-11-06T12:39:46.867Z,10.30
2018-11-06T12:42:51.521Z,10.90
2018-11-06T12:45:56.077Z,8.87
2018-11-06T12:49:00.839Z,9.93
2018-11-06T12:52:05.468Z,9.37
2018-11-06T12:55:12.332Z,9.17
2018-11-06T12:58:16.906Z,9.17
2018-11-06T13:01:21.523Z,9.37
2018-11-06T13:04:26.176Z,9.60
2018-11-06T13:07:30.733Z,8.83
2018-11-06T13:10:35.249Z,9.53
2018-11-06T13:13:39.803Z,9.27
2018-11-06T13:16:44.675Z,9.50
2018-11-06T13:19:49.275Z,8.43
2018-11-06T13:22:53.802Z,8.73
2018-11-06T13:25:58.712Z,9.10
2018-11-06T13:29:03.179Z,8.33
2018-11-06T13:32:07.887Z,8.30
2018-11-06T13:35:12.463Z,7.70
2018-11-06T13:38:17.032Z,8.70
2018-11-06T13:41:21.923Z,8.70
2018-11-06T13:44:26.802Z,8.47
2018-11-06T13:47:31.123Z,8.77
2018-11-06T13:50:35.717Z,8.40
2018-11-06T13:53:40.266Z,7.80
2018-11-06T13:56:44.782Z,8.43
2018-11-06T13:59:49.355Z,8.33
2018-11-06T14:02:53.858Z,8.20
2018-11-06T14:05:58.349Z,7.97
2018-11-06T14:09:02.989Z,8.30
2018-11-06T14:12:07.716Z,8.47
2018-11-06T14:15:12.421Z,8.30
2018-11-06T14:18:17.019Z,8.27
2018-11-06T14:21:21.637Z,8.03
2018-11-06T14:24:26.151Z,8.23
2018-11-06T14:27:30.990Z,8.03
2018-11-06T14:30:35.459Z,8.43
2018-11-06T14:33:40.037Z,8.40
2018-11-06T14:36:44.555Z,7.87
2018-11-06T14:39:49.182Z,8.07
2018-11-06T14:42:53.803Z,8.03
2018-11-06T14:45:58.344Z,10.83
2018-11-06T14:49:03.176Z,13.17
2018-11-06T14:52:07.859Z,15.87
2018-11-06T14:55:14.021Z,11.43
2018-11-06T14:58:18.680Z,9.93
2018-11-06T15:01:23.347Z,10.20
2018-11-06T15:04:27.883Z,12.33
2018-11-06T15:07:32.561Z,9.93
2018-11-06T15:10:37.177Z,11.33
2018-11-06T15:13:41.727Z,10.33
2018-11-06T15:16:46.374Z,9.97
2018-11-06T15:19:51.090Z,13.27
2018-11-06T15:22:55.630Z,11.00
2018-11-06T15:26:00.219Z,11.50
2018-11-06T15:29:05.148Z,11.60
2018-11-06T15:32:09.818Z,11.77
2018-11-06T15:35:15.650Z,12.43
2018-11-06T15:38:20.285Z,12.37
2018-11-06T15:41:24.941Z,10.63
2018-11-06T15:44:29.468Z,10.27
2018-11-06T15:47:34.092Z,10.70
2018-11-06T15:50:38.717Z,10.43
2018-11-06T15:53:43.222Z,10.60
2018-11-06T15:56:47.791Z,9.43
2018-11-06T15:59:52.563Z,10.63
2018-11-06T16:02:57.240Z,11.23
2018-11-06T16:06:01.883Z,15.03
2018-11-06T16:09:07.976Z,17.43
2018-11-06T16:12:12.748Z,16.73
2018-11-06T16:15:17.577Z,16.23
2018-11-06T16:18:22.132Z,22.03
2018-11-06T16:21:26.756Z,18.17
2018-11-06T16:24:31.465Z,17.90
2018-11-06T16:27:36.161Z,16.57
2018-11-06T16:30:40.881Z,15.23
2018-11-06T16:33:45.522Z,14.30
2018-11-06T16:36:50.123Z,13.87
2018-11-06T16:39:54.705Z,13.17
2018-11-06T16:42:59.463Z,12.83
2018-11-06T16:46:04.042Z,14.10
2018-11-06T16:49:08.743Z,14.47
2018-11-06T16:52:13.474Z,13.30
2018-11-06T16:55:19.038Z,14.57
2018-11-06T16:58:23.720Z,14.13
2018-11-06T17:01:28.515Z,14.33
2018-11-06T17:04:33.077Z,12.90
2018-11-06T17:07:37.749Z,13.33
2018-11-06T17:10:42.358Z,13.70
2018-11-06T17:13:47.069Z,13.63
2018-11-06T17:16:51.626Z,14.53
2018-11-06T17:19:56.489Z,14.80
2018-11-06T17:23:01.176Z,14.53
2018-11-06T17:26:06.001Z,13.93
2018-11-06T17:29:10.912Z,14.70
2018-11-06T17:32:15.609Z,15.83
2018-11-06T17:35:21.018Z,16.13
2018-11-06T17:38:25.686Z,20.63
2018-11-06T17:41:30.339Z,23.40
2018-11-06T17:44:34.952Z,24.67
2018-11-06T17:47:39.940Z,24.67
2018-11-06T17:50:44.544Z,31.77
2018-11-06T17:53:49.375Z,37.20
2018-11-06T17:56:54.022Z,33.73
2018-11-06T17:59:58.978Z,29.23
2018-11-06T18:03:03.669Z,26.77
2018-11-06T18:06:08.351Z,29.17
2018-11-06T18:09:13.770Z,30.97
2018-11-06T18:12:18.604Z,28.83
2018-11-06T18:15:23.318Z,28.20
2018-11-06T18:18:28.088Z,30.17
2018-11-06T18:21:32.814Z,49.20
2018-11-06T18:24:37.528Z,27.57
2018-11-06T18:27:42.184Z,47.73
2018-11-06T18:30:46.955Z,35.07
2018-11-06T18:33:51.765Z,31.37
2018-11-06T18:36:56.534Z,35.10
2018-11-06T18:40:01.187Z,35.90
2018-11-06T18:43:06.067Z,38.53
2018-11-06T18:46:10.908Z,32.53
2018-11-06T18:49:15.881Z,27.60
2018-11-06T18:52:20.897Z,29.03
2018-11-06T18:55:26.007Z,24.57
2018-11-06T18:58:30.883Z,25.10
2018-11-06T19:01:35.630Z,23.87
2018-11-06T19:04:40.248Z,23.03
2018-11-06T19:07:51.529Z,27.87
2018-11-06T19:10:56.311Z,28.20
2018-11-06T19:14:01.056Z,27.63
2018-11-06T19:17:06.573Z,21.57
2018-11-06T19:20:12.458Z,23.13
2018-11-06T19:23:17.151Z,26.13
2018-11-06T19:26:22.044Z,26.57
2018-11-06T19:29:26.865Z,20.17
2018-11-06T19:32:31.569Z,27.97
2018-11-06T19:35:36.450Z,25.20
2018-11-06T19:38:41.222Z,23.47
2018-11-06T19:41:45.984Z,21.20
2018-11-06T19:44:51.085Z,20.93
2018-11-06T19:47:55.938Z,25.37
2018-11-06T19:51:00.988Z,22.40
2018-11-06T19:54:05.839Z,22.53
2018-11-06T19:57:10.500Z,21.20
2018-11-06T20:00:19.036Z,17.97
2018-11-06T20:03:23.857Z,18.43
2018-11-06T20:06:28.863Z,16.80
2018-11-06T20:09:33.615Z,15.77
2018-11-06T20:12:38.448Z,19.00
2018-11-06T20:15:43.296Z,20.53
2018-11-06T20:18:47.944Z,22.53
2018-11-06T20:21:52.606Z,29.20
2018-11-06T20:24:57.546Z,24.73
2018-11-06T20:28:02.428Z,22.93
2018-11-06T20:31:07.400Z,23.83
2018-11-06T20:34:12.269Z,22.57
2018-11-06T20:37:17.309Z,20.53
2018-11-06T20:40:24.212Z,20.60
2018-11-06T20:43:28.983Z,20.13
2018-11-06T20:46:34.163Z,22.37
2018-11-06T20:49:38.954Z,20.23
2018-11-06T20:52:43.915Z,20.33
2018-11-06T20:55:49.060Z,21.17
2018-11-06T20:58:53.747Z,24.97
2018-11-06T21:01:58.531Z,21.37
2018-11-06T21:05:03.444Z,29.57
2018-11-06T21:08:08.119Z,24.87
2018-11-06T21:11:12.900Z,26.17
2018-11-06T21:14:17.659Z,25.47
2018-11-06T21:17:22.324Z,20.30
2018-11-06T21:20:27.101Z,22.17
2018-11-06T21:23:31.910Z,25.53
2018-11-06T21:26:36.804Z,24.47
2018-11-06T21:29:41.285Z,19.93
2018-11-06T21:32:50.473Z,23.20
2018-11-06T21:35:55.166Z,20.03
2018-11-06T21:39:00.146Z,22.17
2018-11-06T21:42:04.812Z,22.07
2018-11-06T21:45:11.166Z,22.27
2018-11-06T21:48:16.608Z,21.33
2018-11-06T21:51:21.291Z,18.43
2018-11-06T21:54:25.996Z,20.13
2018-11-06T21:57:30.688Z,19.93
2018-11-06T22:00:35.385Z,21.83
2018-11-06T22:03:40.063Z,22.43
2018-11-06T22:06:44.809Z,23.03
2018-11-06T22:09:49.519Z,21.60
2018-11-06T22:12:54.368Z,23.53
2018-11-06T22:15:59.104Z,20.70
2018-11-06T22:19:04.121Z,21.43
2018-11-06T22:22:08.759Z,22.07
2018-11-06T22:25:13.574Z,21.97
2018-11-06T22:28:18.202Z,21.80
2018-11-06T22:31:22.852Z,20.90
2018-11-06T22:34:27.452Z,22.33
2018-11-06T22:37:32.180Z,19.17
2018-11-06T22:40:36.712Z,21.90
2018-11-06T22:43:41.237Z,21.90
2018-11-06T22:46:45.894Z,20.87
2018-11-06T22:49:50.592Z,19.70
2018-11-06T22:52:55.114Z,19.30
2018-11-06T22:55:59.918Z,19.73
2018-11-06T22:59:04.783Z,17.67
2018-11-06T23:02:09.538Z,19.17
2018-11-06T23:05:14.666Z,19.00
2018-11-06T23:08:27.058Z,17.97
2018-11-06T23:11:31.841Z,18.90
2018-11-06T23:14:36.536Z,18.80
2018-11-06T23:17:41.093Z,16.87
2018-11-06T23:20:45.887Z,18.80
2018-11-06T23:23:50.558Z,18.47
2018-11-06T23:26:55.190Z,18.50
2018-11-06T23:29:59.930Z,20.77
2018-11-06T23:33:04.969Z,19.93
2018-11-06T23:36:09.516Z,17.10
2018-11-06T23:39:14.273Z,15.80
2018-11-06T23:42:19.001Z,17.23
2018-11-06T23:45:23.519Z,14.90
2018-11-06T23:48:28.114Z,15.90
2018-11-06T23:51:32.676Z,19.70
2018-11-06T23:54:37.215Z,32.17
2018-11-06T23:57:41.887Z,28.40
